Henry Post Army Air Field (Fort Sill) Fort Sill US
ICAO: KFSI
IATA: FSI
Category: Medium
Scheduled Services: No

Elevation: 1189 ft
TransAlt. 18000 ft.

Airport Communications:
FORT SILL APP/DEP:118.6
ATIS:135.425
CLNC DEL:121.7
POST GND:121.7
DUNCAN SCTR:118.6
PMSV METRO:37.52
PTD:123.05
POST TWR:124.95

KFSI Zoom In..

If you have problems with the map follow the link
https://www.worldairports.se/pages/airport.php?
ICAO=KFSI

Runways:

(A) RW 17 length 5001 ft width 150 ft
---- / hdg 173

(B) RW 35 length 5001 ft width 150 ft
---- / hdg 353

Location; KFSI
Day. 26 / Time. 22.56 Zulu
* Altimeter: 29.97
* Temperature: 18° c. 64.4°f.
* Wind from: 020° Speed 04 kn.
Dewpoint: 01° c.
Visibility: 7 Statute Miles.
Clouds: Clear (automated report).

KFSI 262256Z AUTO 02004KT 7SM CLR 18/01 A2997 RMK AO2 SLP147 T01780009


Wind From 020°
Speed 04 kn.

 
 
jpsmedia worldairports.se 2020   terms of use